Stationsdaten Spitzerberg

(AVE) = Mittelwert, (MAX) = Spitzenwert der Windgeschwindigkeit in km/h

LT(AVE) = Mittelw. der Lufttemperatur, RH(AVE) = Mittelw. Relativen Luft-Feuchte

DATUM ZEIT WiGe(MAX) WiRi(AVE) WiGe(AVE) LT(AVE) RH(AVE)
--- -- km/h Grad km/h GradC proz
30.12.2017 10:00 14 78 10 -1,5 93
30.12.2017 10:10 14 72 10 -1,7 94
30.12.2017 10:20 16 76 10 -1,7 94
30.12.2017 10:30 13 94 7 -1,5 94
30.12.2017 10:40 11 87 5 -1,4 93
30.12.2017 10:50 18 77 8 -1,2 92
30.12.2017 11:00 21 61 10 -1,2 91
30.12.2017 11:10 19 79 9 -1,2 92
30.12.2017 11:20 15 39 8 -1,4 93
30.12.2017 11:30 12 50 5 -1,3 92
30.12.2017 11:40 17 81 8 -1,4 94
30.12.2017 11:50 12 72 7 -1,2 94
30.12.2017 12:00 12 56 7 -1,2 94
30.12.2017 12:10 12 74 7 -1,1 94
30.12.2017 12:20 16 92 8 -0,8 94
30.12.2017 12:30 17 114 9 -0,7 93
30.12.2017 12:40 15 117 10 -0,7 93
30.12.2017 12:50 17 132 11 -0,8 94
30.12.2017 13:00 15 122 11 -0,8 94
30.12.2017 13:10 16 123 11 -0,6 94
30.12.2017 13:20 16 116 12 -0,6 94
30.12.2017 13:30 18 111 12 -0,6 94
30.12.2017 13:40 21 103 13 -0,4 93
30.12.2017 13:50 20 95 13 -0,3 93
30.12.2017 14:00 19 73 11 -0,3 93
30.12.2017 14:10 21 71 11 -0,4 94
30.12.2017 14:20 15 72 7 -0,3 94
30.12.2017 14:30 20 88 9 -0,2 95
30.12.2017 14:40 26 88 18 -0,3 95
30.12.2017 14:50 31 110 23 -0,3 96
30.12.2017 15:00 32 107 24 -0,3 97
30.12.2017 15:10 35 111 27 -0,3 97
30.12.2017 15:20 32 117 26 -0,4 97
30.12.2017 15:30 28 110 22 -0,4 98
30.12.2017 15:40 37 100 27 -0,4 97
30.12.2017 15:50 38 107 27 -0,6 97
30.12.2017 16:00 37 106 28 -0,6 97
30.12.2017 16:10 36 111 26 -0,6 96
30.12.2017 16:20 43 98 31 -0,6 95
30.12.2017 16:30 43 93 33 -0,7 97
30.12.2017 16:40 42 98 32 -0,8 98
30.12.2017 16:50 39 103 31 -0,7 97
30.12.2017 17:00 44 102 31 -0,7 96
30.12.2017 17:10 42 102 32 -0,6 95
30.12.2017 17:20 45 98 35 -0,4 94
30.12.2017 17:30 47 99 36 -0,4 94
30.12.2017 17:40 46 93 34 -0,4 94
30.12.2017 17:50 43 96 32 -0,3 94
30.12.2017 18:00 41 102 31 -0,2 94
30.12.2017 18:10 45 99 36 -0,2 92
30.12.2017 18:20 42 103 32 -0,2 92
30.12.2017 18:30 44 106 32 -0,2 93
30.12.2017 18:40 47 95 36 -0,2 93
30.12.2017 18:50 44 100 31 0,0 92
30.12.2017 19:00 41 103 32 0,2 92
30.12.2017 19:10 44 103 31 0,3 91
30.12.2017 19:20 39 107 28 0,4 90
30.12.2017 19:30 30 113 22 0,5 90
30.12.2017 19:40 31 113 24 0,5 90
30.12.2017 19:50 31 115 23 0,5 90
30.12.2017 20:00 28 113 22 0,4 94
30.12.2017 20:10 28 106 23 0,3 95
30.12.2017 20:20 29 107 22 0,3 95
30.12.2017 20:30 31 107 24 0,2 96
30.12.2017 20:40 36 110 26 0,0 98
30.12.2017 20:50 31 110 25 -0,1 100
30.12.2017 21:00 33 109 25 0,0 100
30.12.2017 21:10 32 108 25 0,3 100
30.12.2017 21:20 32 120 24 0,5 100
30.12.2017 21:30 26 121 20 0,2 100
30.12.2017 21:40 29 109 21 0,2 100
30.12.2017 21:50 31 111 21 0,2 100
30.12.2017 22:00 26 93 17 0,2 100
30.12.2017 22:10 24 92 13 0,2 100
30.12.2017 22:20 21 91 15 0,3 100
30.12.2017 22:30 25 81 13 0,3 100
30.12.2017 22:40 16 79 11 0,2 100
30.12.2017 22:50 18 98 11 0,2 100
30.12.2017 23:00 21 78 12 0,3 100
30.12.2017 23:10 18 75 13 0,2 100
30.12.2017 23:20 19 79 11 0,0 100
30.12.2017 23:30 16 103 11 0,3 100
30.12.2017 23:40 24 66 16 0,3 100
30.12.2017 23:50 26 66 19 -0,3 100
31.12.2017 00:00 26 64 19 -0,4 100
31.12.2017 00:10 29 69 19 -0,3 100
31.12.2017 00:20 30 69 18 -0,3 100
31.12.2017 00:30 29 66 17 -0,1 100
31.12.2017 00:40 23 67 12 0,2 100
31.12.2017 00:50 29 69 19 -0,1 100
31.12.2017 01:00 28 72 20 -0,1 100
31.12.2017 01:10 28 71 20 -0,1 100
31.12.2017 01:20 29 68 20 0,0 100
31.12.2017 01:30 26 68 20 -0,1 100
31.12.2017 01:40 23 76 16 0,2 100
31.12.2017 01:50 27 84 18 0,4 99
31.12.2017 02:00 31 93 20 0,4 100
31.12.2017 02:10 26 82 16 0,3 100
31.12.2017 02:20 31 88 16 0,2 100
31.12.2017 02:30 26 78 13 0,3 100
31.12.2017 02:40 22 73 15 -0,2 100
31.12.2017 02:50 20 79 11 0,0 100
31.12.2017 03:00 23 68 16 -0,2 100
31.12.2017 03:10 26 71 16 -0,3 100
31.12.2017 03:20 26 77 16 -0,2 100
31.12.2017 03:30 25 70 19 -0,2 100
31.12.2017 03:40 24 70 16 -0,3 100
31.12.2017 03:50 21 79 13 -0,3 100
31.12.2017 04:00 20 77 11 -0,2 100
31.12.2017 04:10 24 64 11 -0,2 100
31.12.2017 04:20 21 64 14 -0,3 100
31.12.2017 04:30 22 68 15 -0,4 100
31.12.2017 04:40 19 70 14 -0,4 100
31.12.2017 04:50 21 69 15 -0,4 100
31.12.2017 05:00 19 68 13 -0,4 100
31.12.2017 05:10 21 82 12 -0,2 100
31.12.2017 05:20 22 87 14 -0,3 100
31.12.2017 05:30 21 72 15 -0,2 100
31.12.2017 05:40 30 69 17 -0,3 100
31.12.2017 05:50 21 110 13 -0,2 100
31.12.2017 06:00 20 82 14 -0,1 100
31.12.2017 06:10 23 73 15 -0,3 100
31.12.2017 06:20 24 68 17 -0,4 100
31.12.2017 06:30 22 67 17 -0,6 100
31.12.2017 06:40 25 72 17 -0,4 100
31.12.2017 06:50 20 75 10 -0,2 100
31.12.2017 07:00 10 71 5 0,3 100
31.12.2017 07:10 4 288 2 0,6 100
31.12.2017 07:20 10 22 3 0,5 100
31.12.2017 07:30 7 40 3 0,6 100
31.12.2017 07:40 11 232 2 1,1 100
31.12.2017 07:50 22 87 7 1,1 100
31.12.2017 08:00 14 56 6 0,9 100
31.12.2017 08:10 18 84 4 0,8 100
31.12.2017 08:20 19 91 6 0,8 100
31.12.2017 08:30 9 30 3 0,4 100
31.12.2017 08:40 19 59 8 0,2 100
31.12.2017 08:50 8 71 3 0,3 100
31.12.2017 09:00 19 99 8 0,2 100
31.12.2017 09:10 17 73 7 -0,1 100
31.12.2017 09:20 15 77 6 -0,2 100
31.12.2017 09:30 16 89 6 0,0 100
31.12.2017 09:40 26 80 12 0,2 100
31.12.2017 09:50 12 107 7 0,2 100